Time;durP1;ratioP1;P1;durP2;ratioP2;P2;SDS_P1;SDS_P2;PMS_P1;PMS_P2;Temp;Humidity;BMP_temperature;BMP_pressure;BME280_temperature;BME280_humidity;BME280_pressure;Samples;Min_cycle;Max_cycle;Signal;HPM_P1;HPM_P2
2022/07/13 00:00:04;;;;;;;2.73;1.60;;;;;;;14.16;100.00;99961.94;5096118;28;20726;-78
2022/07/13 00:02:30;;;;;;;3.07;1.77;;;;;;;14.11;100.00;99968.03;5096288;28;20599;-77
2022/07/13 00:04:57;;;;;;;1.77;1.67;;;;;;;14.06;100.00;99959.81;5093530;28;20228;-77
2022/07/13 00:07:24;;;;;;;2.73;1.90;;;;;;;14.09;100.00;99968.25;5089817;28;20232;-75
2022/07/13 00:09:51;;;;;;;3.33;1.60;;;;;;;14.04;100.00;99957.34;5089891;28;20318;-78
2022/07/13 00:12:17;;;;;;;2.23;1.60;;;;;;;14.00;100.00;99966.97;5104111;28;20271;-78
2022/07/13 00:14:44;;;;;;;3.10;1.83;;;;;;;13.99;100.00;99961.81;5099473;28;20694;-77
2022/07/13 00:17:10;;;;;;;1.83;1.70;;;;;;;14.04;100.00;99962.75;5091474;28;20266;-77
2022/07/13 00:19:37;;;;;;;1.90;1.80;;;;;;;14.16;100.00;99961.94;5091022;28;20737;-77
2022/07/13 00:22:04;;;;;;;2.70;1.70;;;;;;;14.10;100.00;99961.81;5096455;28;20258;-76
2022/07/13 00:24:30;;;;;;;2.63;1.70;;;;;;;14.08;100.00;99965.81;5075219;28;20655;-77
2022/07/13 00:26:57;;;;;;;2.10;1.87;;;;;;;14.33;100.00;99965.56;5093713;28;20311;-77
2022/07/13 00:29:24;;;;;;;2.90;2.10;;;;;;;14.28;100.00;99960.03;5099740;28;20232;-77
2022/07/13 00:31:50;;;;;;;2.93;1.60;;;;;;;14.20;100.00;99963.09;5091059;28;20239;-76
2022/07/13 00:34:17;;;;;;;2.50;1.87;;;;;;;14.18;100.00;99962.53;5102302;28;20214;-77
2022/07/13 00:36:44;;;;;;;2.67;1.53;;;;;;;14.07;100.00;99965.00;5066853;28;20281;-77
2022/07/13 00:39:10;;;;;;;2.47;1.83;;;;;;;14.03;100.00;99961.13;5103292;28;20231;-75
2022/07/13 00:41:47;;;;;;;2.37;2.00;;;;;;;14.16;100.00;99956.53;5096667;28;20263;-76
2022/07/13 00:44:15;;;;;;;2.10;1.80;;;;;;;14.11;100.00;99965.34;5090792;28;20644;-76
2022/07/13 00:46:51;;;;;;;3.40;1.90;;;;;;;14.01;100.00;99960.53;5073478;28;20220;-75
2022/07/13 00:49:19;;;;;;;3.70;1.87;;;;;;;14.03;100.00;99963.81;5099574;28;20239;-76
2022/07/13 00:51:45;;;;;;;1.70;1.60;;;;;;;14.06;100.00;99962.53;5073187;28;20240;-78
2022/07/13 00:54:14;;;;;;;3.67;1.90;;;;;;;13.98;100.00;99966.41;5082278;28;20228;-78
2022/07/13 00:56:41;;;;;;;2.00;1.90;;;;;;;13.93;100.00;99958.19;5096620;28;20254;-77
2022/07/13 00:59:07;;;;;;;1.70;1.60;;;;;;;13.94;100.00;99962.53;5077934;28;20227;-78
2022/07/13 01:01:34;;;;;;;1.90;1.80;;;;;;;13.96;100.00;99960.41;5080598;28;20231;-78
2022/07/13 01:04:01;;;;;;;2.07;1.80;;;;;;;13.92;100.00;99958.41;5092606;28;20243;-77
2022/07/13 01:06:27;;;;;;;1.60;1.50;;;;;;;13.92;100.00;99959.25;5084057;28;20228;-78
2022/07/13 01:08:54;;;;;;;3.30;1.70;;;;;;;14.09;100.00;99948.59;5091093;28;20307;-78
2022/07/13 01:11:21;;;;;;;2.13;1.60;;;;;;;14.10;100.00;99942.97;5093285;28;20313;-78
2022/07/13 01:13:48;;;;;;;1.87;1.50;;;;;;;14.04;100.00;99949.28;5081241;28;20625;-77
2022/07/13 01:16:15;;;;;;;1.50;1.40;;;;;;;14.21;100.00;99941.31;5081416;28;20231;-78
2022/07/13 01:18:42;;;;;;;1.87;1.67;;;;;;;14.24;100.00;99940.84;5105327;28;20223;-77
2022/07/13 01:21:09;;;;;;;1.87;1.50;;;;;;;14.59;100.00;99940.00;5097560;28;20649;-78
2022/07/13 01:23:36;;;;;;;1.50;1.40;;;;;;;14.51;100.00;99941.22;5092062;28;20257;-77
2022/07/13 01:26:03;;;;;;;1.93;1.70;;;;;;;14.38;100.00;99936.03;5107113;28;20265;-78
2022/07/13 01:28:31;;;;;;;1.53;1.43;;;;;;;14.48;100.00;99933.56;5063062;28;20246;-78
2022/07/13 01:30:58;;;;;;;1.50;1.40;;;;;;;14.45;100.00;99939.44;5098364;28;20609;-77
2022/07/13 01:33:24;;;;;;;2.40;1.30;;;;;;;14.54;100.00;99935.31;5097195;28;20230;-77
2022/07/13 01:35:51;;;;;;;1.53;1.43;;;;;;;14.64;100.00;99932.03;5106025;28;20231;-77
2022/07/13 01:38:19;;;;;;;1.90;1.47;;;;;;;14.69;100.00;99932.13;5076855;28;20757;-77
2022/07/13 01:40:46;;;;;;;2.07;1.40;;;;;;;14.69;100.00;99930.25;5068320;28;20264;-77
2022/07/13 01:43:13;;;;;;;1.70;1.60;;;;;;;14.80;100.00;99925.88;5087565;28;20228;-76
2022/07/13 01:45:39;;;;;;;1.77;1.40;;;;;;;14.82;100.00;99929.16;5094033;28;20233;-77
2022/07/13 01:48:07;;;;;;;1.37;1.20;;;;;;;14.80;100.00;99926.69;5083878;28;20223;-77
2022/07/13 01:50:35;;;;;;;1.43;1.30;;;;;;;14.84;100.00;99927.84;5072073;28;20319;-77
2022/07/13 01:53:02;;;;;;;2.10;1.40;;;;;;;14.98;100.00;99922.97;5067918;28;20229;-77
2022/07/13 01:55:28;;;;;;;1.70;1.50;;;;;;;14.82;100.00;99924.59;5068585;28;20255;-78
2022/07/13 01:57:57;;;;;;;1.60;1.50;;;;;;;14.74;100.00;99916.88;5080508;28;20260;-77
2022/07/13 02:00:24;;;;;;;1.83;1.63;;;;;;;14.82;100.00;99921.88;5062274;28;20234;-78
2022/07/13 02:02:50;;;;;;;2.20;1.30;;;;;;;14.73;100.00;99931.41;5064427;28;20701;-78
2022/07/13 02:05:25;;;;;;;1.60;1.50;;;;;;;14.73;100.00;99926.03;5066849;28;20235;-77
2022/07/13 02:07:51;;;;;;;3.33;1.80;;;;;;;14.66;100.00;99922.63;5065415;28;20725;-78
2022/07/13 02:10:18;;;;;;;1.80;1.57;;;;;;;14.58;100.00;99914.91;5088644;28;20236;-79
2022/07/13 02:12:45;;;;;;;2.00;1.80;;;;;;;14.50;100.00;99929.59;5072313;28;20955;-78
2022/07/13 02:15:11;;;;;;;2.30;1.47;;;;;;;14.50;100.00;99908.03;5062268;28;20245;-78
2022/07/13 02:17:39;;;;;;;1.83;1.73;;;;;;;14.47;100.00;99915.75;5063559;28;20272;-78
2022/07/13 02:20:07;;;;;;;2.63;1.80;;;;;;;14.47;100.00;99913.06;5067142;28;20235;-77
2022/07/13 02:22:41;;;;;;;2.30;1.90;;;;;;;14.31;100.00;99920.00;5067156;28;20232;-78
2022/07/13 02:25:09;;;;;;;1.83;1.60;;;;;;;14.21;100.00;99911.69;5069063;28;20236;-78
2022/07/13 02:27:37;;;;;;;2.17;1.93;;;;;;;14.09;100.00;99924.34;5071796;28;20237;-77
2022/07/13 02:30:06;;;;;;;1.93;1.80;;;;;;;14.18;100.00;99924.81;5088505;28;20723;-77
2022/07/13 02:32:32;;;;;;;1.83;1.73;;;;;;;14.06;100.00;99922.94;5064752;28;20304;-79
2022/07/13 02:34:59;;;;;;;2.20;2.00;;;;;;;13.94;100.00;99913.22;5078308;28;20235;-79
2022/07/13 02:37:27;;;;;;;2.00;1.70;;;;;;;13.87;100.00;99920.59;5074919;28;20239;-77
2022/07/13 02:39:56;;;;;;;1.87;1.77;;;;;;;13.82;100.00;99923.97;5082400;28;20248;-77
2022/07/13 02:42:23;;;;;;;3.57;1.77;;;;;;;13.74;100.00;99921.63;5065513;28;20232;-77
2022/07/13 02:44:54;;;;;;;2.10;1.90;;;;;;;13.68;100.00;99923.38;5061194;28;20225;-77
2022/07/13 02:47:21;;;;;;;2.37;2.03;;;;;;;13.73;100.00;99927.25;5077122;28;20232;-78
2022/07/13 02:49:48;;;;;;;2.23;1.90;;;;;;;13.64;100.00;99918.69;5082139;28;20313;-78
2022/07/13 02:52:15;;;;;;;2.00;1.90;;;;;;;13.61;100.00;99929.94;5070221;28;20724;-77
2022/07/13 02:54:42;;;;;;;1.80;1.70;;;;;;;13.81;100.00;99927.72;5093645;28;20763;-78
2022/07/13 02:57:09;;;;;;;1.97;1.83;;;;;;;13.70;100.00;99917.78;5074262;28;20276;-78
2022/07/13 02:59:36;;;;;;;2.00;1.80;;;;;;;13.72;100.00;99922.94;5060485;28;20231;-77
2022/07/13 03:02:04;;;;;;;1.93;1.70;;;;;;;13.62;100.00;99932.38;5068965;28;20315;-77
2022/07/13 03:04:32;;;;;;;1.67;1.57;;;;;;;13.57;100.00;99929.59;5086393;28;20238;-77
2022/07/13 03:06:59;;;;;;;1.80;1.70;;;;;;;13.57;100.00;99926.06;5091211;28;20235;-76
2022/07/13 03:09:27;;;;;;;3.20;1.80;;;;;;;13.59;100.00;99924.78;5078282;28;20932;-77
2022/07/13 03:11:54;;;;;;;2.77;1.80;;;;;;;13.52;100.00;99925.94;5082266;28;20283;-78
2022/07/13 03:14:21;;;;;;;2.77;1.70;;;;;;;13.51;100.00;99924.31;5078831;28;20624;-78
2022/07/13 03:16:49;;;;;;;2.43;1.83;;;;;;;13.56;100.00;99925.25;5091005;28;20253;-78
2022/07/13 03:19:16;;;;;;;4.10;2.00;;;;;;;13.55;100.00;99920.91;5079871;28;20216;-78
2022/07/13 03:21:43;;;;;;;2.57;1.80;;;;;;;13.55;100.00;99926.28;5082372;28;20242;-78
2022/07/13 03:24:11;;;;;;;1.83;1.60;;;;;;;13.58;100.00;99922.31;5088764;28;20226;-78
2022/07/13 03:26:38;;;;;;;2.30;1.40;;;;;;;13.59;100.00;99924.78;5077618;28;20233;-77
2022/07/13 03:29:04;;;;;;;2.43;1.67;;;;;;;13.59;100.00;99924.78;5073707;28;20236;-78
2022/07/13 03:31:32;;;;;;;1.60;1.50;;;;;;;13.67;100.00;99929.81;5078319;28;20236;-77
2022/07/13 03:33:59;;;;;;;1.77;1.50;;;;;;;13.68;100.00;99923.38;5068589;28;20285;-77
2022/07/13 03:36:26;;;;;;;1.63;1.53;;;;;;;13.73;100.00;99927.25;5065390;28;20237;-75
2022/07/13 03:38:53;;;;;;;1.93;1.60;;;;;;;13.73;100.00;99929.94;5071314;28;20308;-79
2022/07/13 03:41:21;;;;;;;2.13;1.60;;;;;;;13.77;100.00;99929.25;5071983;28;20285;-76
2022/07/13 03:43:48;;;;;;;2.63;1.63;;;;;;;13.83;100.00;99932.88;5094948;28;20287;-76
2022/07/13 03:46:14;;;;;;;2.70;1.50;;;;;;;13.82;100.00;99934.75;5073269;28;20212;-76
2022/07/13 03:48:41;;;;;;;1.87;1.60;;;;;;;13.86;100.00;99933.22;5082050;28;20272;-77
2022/07/13 03:51:08;;;;;;;2.90;1.57;;;;;;;13.87;100.00;99929.50;5077006;28;20310;-77
2022/07/13 03:53:35;;;;;;;1.77;1.67;;;;;;;13.90;100.00;99930.91;5071958;28;20648;-78
2022/07/13 03:56:02;;;;;;;3.70;1.67;;;;;;;13.93;100.00;99931.25;5082958;28;20243;-76
2022/07/13 03:58:30;;;;;;;3.33;1.70;;;;;;;13.98;100.00;99930.56;5100397;28;20585;-77
2022/07/13 04:00:57;;;;;;;1.60;1.50;;;;;;;14.02;100.00;99924.47;5078341;28;20234;-79
2022/07/13 04:03:24;;;;;;;2.40;1.90;;;;;;;14.08;100.00;99928.91;5064325;28;20227;-79
2022/07/13 04:05:52;;;;;;;2.50;1.80;;;;;;;14.22;100.00;99926.78;5054238;28;20228;-79
2022/07/13 04:08:18;;;;;;;2.40;2.00;;;;;;;15.15;100.00;99923.03;5073669;28;20367;-78
2022/07/13 04:10:45;;;;;;;3.37;1.83;;;;;;;17.59;99.41;99924.22;5068380;28;20262;-79
2022/07/13 04:13:14;;;;;;;2.60;2.00;;;;;;;19.48;77.28;99919.47;5080215;28;20700;-78
2022/07/13 04:15:41;;;;;;;1.60;1.50;;;;;;;20.44;65.08;99922.09;5084445;28;20708;-76
2022/07/13 04:18:08;;;;;;;3.03;1.60;;;;;;;20.88;62.46;99924.91;5068696;28;20264;-76
2022/07/13 04:20:35;;;;;;;2.70;1.40;;;;;;;21.13;59.85;99931.34;5078056;28;20238;-76
2022/07/13 04:23:02;;;;;;;8.47;6.17;;;;;;;21.24;58.56;99922.84;5071319;28;20235;-76
2022/07/13 04:25:29;;;;;;;8.00;7.20;;;;;;;21.34;57.53;99928.22;5062179;28;20231;-76
2022/07/13 04:27:56;;;;;;;3.17;2.57;;;;;;;21.34;57.20;99930.13;5087548;28;20272;-76
2022/07/13 04:30:23;;;;;;;2.93;2.43;;;;;;;21.33;57.38;99931.22;5081615;28;20320;-76
2022/07/13 04:32:49;;;;;;;2.20;1.60;;;;;;;21.59;56.20;99929.13;5075839;28;20237;-76
2022/07/13 04:35:18;;;;;;;1.30;1.20;;;;;;;21.87;54.68;99945.53;5075583;28;20285;-76
2022/07/13 04:37:47;;;;;;;3.33;1.20;;;;;;;21.73;55.11;99924.66;5088326;28;20229;-76
2022/07/13 04:40:14;;;;;;;1.73;1.10;;;;;;;21.12;57.88;99922.34;5085159;28;20600;-76
2022/07/13 04:42:41;;;;;;;1.20;1.10;;;;;;;20.69;60.58;99925.81;5072991;28;20292;-77
2022/07/13 04:45:10;;;;;;;2.03;0.97;;;;;;;20.34;63.40;99926.78;5088344;28;20279;-77
2022/07/13 04:47:37;;;;;;;2.83;1.20;;;;;;;20.09;65.07;99924.88;5087832;28;20234;-75
2022/07/13 04:50:05;;;;;;;1.23;1.13;;;;;;;19.85;66.95;99918.38;5060122;28;20704;-76
2022/07/13 04:52:32;;;;;;;1.60;1.20;;;;;;;19.75;68.22;99922.75;5074320;28;20249;-78
2022/07/13 04:54:59;;;;;;;1.90;1.23;;;;;;;19.69;69.51;99921.09;5075330;28;20233;-79
2022/07/13 04:57:26;;;;;;;1.40;1.30;;;;;;;19.69;69.42;99923.03;5069136;28;20233;-79
2022/07/13 04:59:53;;;;;;;2.83;1.27;;;;;;;19.68;70.27;99919.50;5093824;28;20308;-78
2022/07/13 05:02:20;;;;;;;1.70;1.20;;;;;;;19.82;70.45;99927.09;5092687;28;20445;-78
2022/07/13 05:04:47;;;;;;;1.70;1.20;;;;;;;19.93;70.22;99925.97;5070727;28;20753;-78
2022/07/13 05:07:15;;;;;;;1.50;1.37;;;;;;;20.06;71.06;99928.94;5082072;28;20620;-78
2022/07/13 05:09:42;;;;;;;2.87;1.50;;;;;;;20.21;70.38;99923.50;5086667;28;20235;-78
2022/07/13 05:12:09;;;;;;;1.63;1.20;;;;;;;20.44;70.09;99922.09;5062041;28;20244;-82
2022/07/13 05:14:37;;;;;;;3.17;1.10;;;;;;;20.65;70.41;99920.13;5095418;28;20249;-82
2022/07/13 05:17:04;;;;;;;2.27;1.40;;;;;;;20.95;68.13;99919.97;5059670;28;20252;-80
2022/07/13 05:19:31;;;;;;;2.37;1.40;;;;;;;21.29;66.08;99919.25;5083606;28;20635;-81
2022/07/13 05:21:58;;;;;;;1.87;1.30;;;;;;;21.64;64.86;99918.19;5077620;28;20677;-81
2022/07/13 05:24:25;;;;;;;3.30;1.50;;;;;;;22.14;60.03;99919.66;5059866;28;20234;-80
2022/07/13 05:26:53;;;;;;;2.40;1.47;;;;;;;22.61;55.83;99914.22;5082130;28;20233;-80
2022/07/13 05:29:19;;;;;;;1.70;1.10;;;;;;;23.11;53.30;99917.41;5069269;28;20232;-83
2022/07/13 05:31:46;;;;;;;1.43;0.90;;;;;;;23.63;50.58;99913.63;5072776;28;20640;-80
2022/07/13 05:34:13;;;;;;;2.83;1.00;;;;;;;24.17;47.91;99909.44;5091082;28;20239;-81
2022/07/13 05:36:44;;;;;;;1.20;1.10;;;;;;;24.54;46.45;99907.31;5082358;28;20261;-81
2022/07/13 05:39:11;;;;;;;1.00;1.00;;;;;;;24.52;44.78;99900.53;5078648;28;20261;-80
2022/07/13 05:41:38;;;;;;;2.03;0.90;;;;;;;24.57;45.20;99900.44;5073712;28;20227;-80
2022/07/13 05:44:05;;;;;;;1.83;1.00;;;;;;;24.57;44.52;99897.69;5070915;28;20261;-80
2022/07/13 05:46:31;;;;;;;1.27;1.00;;;;;;;24.55;44.39;99897.16;5095022;28;20235;-81
2022/07/13 05:48:59;;;;;;;1.60;0.80;;;;;;;24.58;43.80;99902.06;5073666;28;20311;-79
2022/07/13 05:51:25;;;;;;;1.95;1.05;;;;;;;24.65;43.59;99902.44;5095840;28;20244;-80
2022/07/13 05:54:04;;;;;;;1.13;0.93;;;;;;;24.75;44.30;99904.16;5064558;28;20251;-81
2022/07/13 05:56:51;;;;;;;2.20;1.30;;;;;;;24.76;44.86;99905.78;5095807;28;20236;-80
2022/07/13 05:59:17;;;;;;;2.78;1.20;;;;;;;24.75;43.15;99906.91;5081559;28;20254;-80
2022/07/13 06:01:44;;;;;;;1.73;1.00;;;;;;;24.72;43.63;99904.78;5083892;28;20255;-80
2022/07/13 06:04:11;;;;;;;1.98;1.15;;;;;;;24.71;44.71;99903.16;5075221;28;20240;-79
2022/07/13 06:06:38;;;;;;;4.53;1.30;;;;;;;24.72;44.46;99896.56;5084748;28;20298;-81
2022/07/13 06:09:05;;;;;;;3.03;1.27;;;;;;;24.70;43.82;99894.13;5086263;28;20242;-80
2022/07/13 06:11:31;;;;;;;1.85;1.10;;;;;;;24.48;43.31;99905.00;5100859;28;20224;-82
2022/07/13 06:13:58;;;;;;;2.40;1.00;;;;;;;24.38;44.18;99894.25;5090101;28;20278;-78
2022/07/13 06:16:25;;;;;;;4.10;1.02;;;;;;;24.19;44.41;99897.06;5101091;28;20235;-80
2022/07/13 06:18:52;;;;;;;1.80;1.13;;;;;;;24.13;44.69;99899.06;5099272;28;20315;-80
2022/07/13 06:21:18;;;;;;;2.15;1.10;;;;;;;23.97;45.91;99900.47;5076793;28;20289;-81
2022/07/13 06:23:45;;;;;;;1.50;1.10;;;;;;;23.76;44.46;99901.91;5079361;28;20293;-80
2022/07/13 06:26:12;;;;;;;1.65;1.30;;;;;;;23.44;46.93;99902.72;5079857;28;20253;-80
2022/07/13 06:28:38;;;;;;;1.20;1.10;;;;;;;23.38;47.13;99908.53;5093031;28;20228;-83
2022/07/13 06:31:05;;;;;;;2.67;1.08;;;;;;;23.52;47.38;99904.78;5090399;28;20232;-81
2022/07/13 06:33:32;;;;;;;2.90;1.13;;;;;;;23.65;46.63;99912.25;5090974;28;20239;-81
2022/07/13 06:35:58;;;;;;;2.90;1.15;;;;;;;23.94;46.00;99906.53;5094845;28;20899;-80
2022/07/13 06:38:25;;;;;;;2.85;1.45;;;;;;;24.05;46.41;99910.72;5088463;28;20256;-80
2022/07/13 06:40:52;;;;;;;3.05;1.27;;;;;;;23.97;46.15;99918.81;5075615;28;20719;-82
2022/07/13 06:43:18;;;;;;;2.45;1.15;;;;;;;24.19;45.81;99912.69;5080119;28;20241;-80
2022/07/13 06:45:45;;;;;;;2.42;1.10;;;;;;;24.28;45.75;99913.59;5084246;28;20322;-80
2022/07/13 06:48:12;;;;;;;1.25;1.08;;;;;;;24.19;45.43;99921.72;5084342;28;20667;-80
2022/07/13 06:50:39;;;;;;;2.13;1.23;;;;;;;24.33;45.60;99918.97;5082497;28;20249;-80
2022/07/13 06:53:05;;;;;;;1.10;1.00;;;;;;;24.33;44.04;99916.25;5081878;28;20249;-80
2022/07/13 06:55:32;;;;;;;2.08;1.08;;;;;;;24.35;45.41;99914.84;5083945;28;20232;-80
2022/07/13 06:57:59;;;;;;;1.30;1.10;;;;;;;24.39;45.56;99907.63;5087603;28;20225;-80
2022/07/13 07:00:25;;;;;;;1.20;1.10;;;;;;;24.52;43.29;99906.00;5079108;28;20362;-81
2022/07/13 07:02:52;;;;;;;2.35;0.93;;;;;;;24.62;43.59;99905.81;5079974;28;20227;-80
2022/07/13 07:05:20;;;;;;;1.27;1.17;;;;;;;24.70;43.42;99890.56;5080930;28;20231;-81
2022/07/13 07:07:47;;;;;;;1.42;1.05;;;;;;;24.77;43.85;99899.19;5079039;28;20217;-80
2022/07/13 07:10:13;;;;;;;3.20;1.17;;;;;;;24.79;41.27;99905.97;5077780;28;20227;-79
2022/07/13 07:12:40;;;;;;;4.80;1.10;;;;;;;24.92;39.99;99899.69;5083204;28;20231;-82
2022/07/13 07:15:07;;;;;;;2.67;1.17;;;;;;;24.94;40.19;99907.63;5083940;28;20246;-79
2022/07/13 07:17:43;;;;;;;3.08;0.90;;;;;;;25.03;40.00;99903.03;5085255;28;20882;-78
2022/07/13 07:20:10;;;;;;;3.17;1.20;;;;;;;25.16;40.91;99896.69;5085214;28;20596;-79
2022/07/13 07:22:37;;;;;;;2.30;1.00;;;;;;;25.20;39.74;99899.63;5088755;28;20685;-80
2022/07/13 07:25:04;;;;;;;4.90;1.20;;;;;;;25.34;39.90;99884.75;5089341;28;20327;-80
2022/07/13 07:27:30;;;;;;;6.38;1.50;;;;;;;25.34;38.87;99890.22;5079754;28;20647;-80
2022/07/13 07:29:58;;;;;;;2.00;0.98;;;;;;;25.41;38.21;99890.63;5084490;28;20227;-80
2022/07/13 07:32:26;;;;;;;1.52;0.98;;;;;;;25.39;38.24;99892.84;5092921;28;20217;-80
2022/07/13 07:34:53;;;;;;;2.10;1.10;;;;;;;25.46;38.54;99889.69;5086679;28;20224;-80
2022/07/13 07:37:21;;;;;;;1.90;0.90;;;;;;;25.42;37.53;99889.50;5085595;28;20311;-80
2022/07/13 07:39:51;;;;;;;2.20;0.90;;;;;;;25.50;37.68;99882.44;5091243;28;20256;-80
2022/07/13 07:42:18;;;;;;;3.60;1.02;;;;;;;25.58;37.70;99873.50;5060332;28;20701;-79
2022/07/13 07:44:44;;;;;;;2.80;1.10;;;;;;;25.80;38.79;99886.41;5087831;28;20220;-80
2022/07/13 07:47:11;;;;;;;0.93;0.90;;;;;;;25.85;38.59;99884.31;5088849;28;20233;-81
2022/07/13 07:49:38;;;;;;;2.05;0.98;;;;;;;25.99;39.50;99888.94;5087211;28;20957;-79
2022/07/13 07:52:07;;;;;;;1.33;1.13;;;;;;;26.03;37.13;99878.94;5086936;28;20231;-80
2022/07/13 07:54:54;;;;;;;1.25;1.15;;;;;;;26.08;37.48;99873.31;5082285;28;20225;-79
2022/07/13 07:57:27;;;;;;;4.30;1.20;;;;;;;26.11;36.84;99884.47;5084837;28;20231;-80
2022/07/13 07:59:53;;;;;;;1.05;0.95;;;;;;;26.14;37.69;99883.81;5068921;28;20288;-79
2022/07/13 08:02:20;;;;;;;1.13;1.00;;;;;;;26.12;37.59;99888.00;5080219;28;20228;-81
2022/07/13 08:04:47;;;;;;;1.65;0.95;;;;;;;26.10;36.96;99877.34;5085190;28;20322;-79
2022/07/13 08:07:14;;;;;;;1.70;1.00;;;;;;;26.18;35.88;99890.28;5094048;28;20239;-80
2022/07/13 08:09:40;;;;;;;0.75;0.60;;;;;;;26.19;35.95;99888.34;5068692;28;20222;-80
2022/07/13 08:12:07;;;;;;;1.42;0.80;;;;;;;26.01;35.38;99881.16;5087834;28;20241;-80
2022/07/13 08:14:34;;;;;;;1.63;0.77;;;;;;;26.13;34.87;99867.69;5083485;28;20281;-80
2022/07/13 08:17:00;;;;;;;0.80;0.80;;;;;;;26.05;34.60;99884.91;5088441;28;20223;-80
2022/07/13 08:19:27;;;;;;;1.10;1.00;;;;;;;26.16;35.10;99884.31;5090350;28;20258;-80
2022/07/13 08:22:06;;;;;;;0.73;0.73;;;;;;;26.10;35.59;99887.50;5067620;28;20322;-79
2022/07/13 08:24:32;;;;;;;1.33;0.80;;;;;;;26.05;35.46;99877.47;5093189;28;20743;-81
2022/07/13 08:27:01;;;;;;;1.27;0.90;;;;;;;26.27;35.86;99877.44;5094122;28;20232;-80
2022/07/13 08:29:27;;;;;;;1.38;0.98;;;;;;;26.25;35.93;99868.72;5073534;28;20272;-80
2022/07/13 08:31:54;;;;;;;1.73;1.00;;;;;;;26.37;36.26;99872.78;5090593;28;20332;-79
2022/07/13 08:39:52;;;;;;;0.95;0.95;;;;;;;26.46;35.48;99860.69;5095326;28;20753;-82
2022/07/13 08:42:19;;;;;;;1.33;0.90;;;;;;;26.47;35.97;99867.00;5051525;28;20227;-79
2022/07/13 08:44:46;;;;;;;2.50;1.00;;;;;;;26.63;36.08;99862.69;5089255;28;20251;-79
2022/07/13 08:47:13;;;;;;;1.23;1.00;;;;;;;26.74;36.65;99855.75;5067599;28;20238;-80
2022/07/13 08:49:41;;;;;;;1.23;1.00;;;;;;;26.93;36.21;99863.72;5090547;28;20262;-80
2022/07/13 08:52:08;;;;;;;1.02;1.00;;;;;;;27.06;35.72;99868.28;5091037;28;20700;-80
2022/07/13 08:54:34;;;;;;;3.38;1.10;;;;;;;27.12;34.85;99864.22;5088670;28;20232;-81
2022/07/13 08:57:01;;;;;;;1.10;1.00;;;;;;;27.21;35.05;99870.53;5067069;28;20640;-79
2022/07/13 08:59:28;;;;;;;3.90;0.90;;;;;;;27.27;35.01;99871.19;5088281;28;20252;-81
2022/07/13 09:01:54;;;;;;;1.60;0.82;;;;;;;27.28;34.26;99875.56;5088926;28;20314;-80
2022/07/13 09:04:22;;;;;;;2.17;1.02;;;;;;;27.06;34.65;99873.78;5072599;28;20234;-79
2022/07/13 09:06:49;;;;;;;1.80;0.90;;;;;;;27.16;34.37;99871.50;5092219;28;20230;-80
2022/07/13 09:09:27;;;;;;;0.88;0.82;;;;;;;27.05;34.11;99870.22;5091306;28;20258;-79
2022/07/13 09:12:16;;;;;;;1.27;0.80;;;;;;;27.10;34.61;99864.56;5072458;28;20293;-79
2022/07/13 09:14:55;;;;;;;1.65;1.00;;;;;;;27.18;34.20;99873.94;5069539;28;20216;-79
2022/07/13 09:17:35;;;;;;;2.53;1.00;;;;;;;27.24;33.68;99878.16;5095822;28;20240;-81
2022/07/13 09:20:17;;;;;;;1.58;0.90;;;;;;;27.28;33.97;99867.31;5073472;28;20609;-79
2022/07/13 09:22:55;;;;;;;1.50;1.05;;;;;;;27.17;34.07;99864.88;5092953;28;20293;-80
2022/07/13 09:25:27;;;;;;;2.08;1.08;;;;;;;27.34;35.03;99866.00;5100642;28;20235;-79
2022/07/13 09:27:54;;;;;;;1.20;1.10;;;;;;;27.46;32.27;99858.72;5082239;28;20231;-80
2022/07/13 09:30:26;;;;;;;1.63;1.00;;;;;;;27.41;32.18;99860.81;5090410;28;20263;-80
2022/07/13 09:32:54;;;;;;;1.23;0.90;;;;;;;27.48;32.49;99858.38;5102670;28;20228;-80
2022/07/13 09:35:41;;;;;;;1.83;1.08;;;;;;;27.59;32.52;99859.69;5100704;28;20227;-80
2022/07/13 09:38:07;;;;;;;0.82;0.80;;;;;;;27.59;32.63;99855.00;5068162;28;20267;-79
2022/07/13 09:40:34;;;;;;;2.05;1.10;;;;;;;27.66;33.11;99850.94;5102569;28;20232;-81
2022/07/13 09:48:32;;;;;;;1.33;1.23;;;;;;;27.72;32.60;99864.19;5092641;28;20632;-80
2022/07/13 09:50:58;;;;;;;1.10;0.90;;;;;;;27.77;32.02;99863.19;5049925;28;20900;-79
2022/07/13 09:53:30;;;;;;;1.67;0.90;;;;;;;27.69;32.60;99862.09;5049035;28;20232;-80
2022/07/13 09:55:59;;;;;;;0.88;0.85;;;;;;;27.90;32.73;99854.72;5047080;28;20232;-79
2022/07/13 09:58:33;;;;;;;2.15;1.05;;;;;;;27.89;32.21;99860.59;5055073;28;20316;-80
2022/07/13 10:01:03;;;;;;;0.93;0.93;;;;;;;28.06;31.75;99857.75;5043824;28;20240;-79
2022/07/13 10:03:30;;;;;;;0.90;0.90;;;;;;;28.03;32.35;99853.75;5057146;28;20323;-79
2022/07/13 10:06:00;;;;;;;4.05;1.02;;;;;;;27.89;32.78;99852.34;5061003;28;20641;-79
2022/07/13 10:08:27;;;;;;;1.40;0.90;;;;;;;28.04;34.33;99857.31;5055287;28;20232;-80
2022/07/13 10:10:54;;;;;;;1.00;0.90;;;;;;;28.13;33.35;99855.34;5063026;28;20261;-80
2022/07/13 10:13:20;;;;;;;1.67;0.90;;;;;;;28.18;32.73;99863.44;5055689;28;20705;-81
2022/07/13 10:15:47;;;;;;;0.98;0.90;;;;;;;28.09;32.24;99854.34;5063024;28;20233;-80
2022/07/13 10:18:22;;;;;;;0.90;0.90;;;;;;;28.27;32.48;99849.63;5031647;28;20321;-80
2022/07/13 10:20:54;;;;;;;4.55;1.10;;;;;;;28.52;33.57;99856.91;5040561;28;20220;-80
2022/07/13 10:23:32;;;;;;;1.05;0.90;;;;;;;28.74;32.96;99851.13;5056703;28;20233;-80
2022/07/13 10:26:21;;;;;;;1.00;0.90;;;;;;;28.65;31.86;99835.78;5059015;28;20693;-80
2022/07/13 10:29:00;;;;;;;1.63;0.90;;;;;;;28.63;33.41;99843.56;5056521;28;20229;-80
2022/07/13 10:31:29;;;;;;;2.25;1.10;;;;;;;28.46;32.80;99844.50;5062327;28;20697;-80
2022/07/13 10:33:55;;;;;;;1.13;1.02;;;;;;;28.58;33.06;99830.78;5061539;28;20283;-80
2022/07/13 10:36:50;;;;;;;1.02;1.00;;;;;;;28.72;33.15;99839.66;5048679;28;20233;-79
2022/07/13 10:39:19;;;;;;;1.88;0.98;;;;;;;28.63;32.89;99833.34;5050659;28;20236;-81
2022/07/13 10:42:03;;;;;;;1.42;1.00;;;;;;;28.76;32.95;99823.25;5056466;28;20234;-80
2022/07/13 10:44:50;;;;;;;1.10;1.00;;;;;;;28.74;30.56;99833.81;5051795;28;20236;-80
2022/07/13 10:47:20;;;;;;;1.40;0.90;;;;;;;28.60;32.14;99836.78;5048519;28;20245;-79
2022/07/13 10:49:47;;;;;;;1.52;0.95;;;;;;;28.63;31.89;99816.81;5050423;28;20265;-80
2022/07/13 10:52:40;;;;;;;2.17;1.00;;;;;;;28.84;32.99;99836.16;5063596;28;20258;-80
2022/07/13 10:55:31;;;;;;;2.15;0.90;;;;;;;28.94;32.34;99821.16;5056920;28;20229;-79
2022/07/13 10:58:00;;;;;;;1.10;1.00;;;;;;;29.04;31.11;99823.50;5052567;28;20234;-80
2022/07/13 11:00:37;;;;;;;1.63;0.95;;;;;;;29.03;32.50;99825.44;5059063;28;20735;-79
2022/07/13 11:03:07;;;;;;;1.30;1.20;;;;;;;29.25;32.34;99816.03;5053099;28;20225;-79
2022/07/13 11:05:35;;;;;;;1.83;1.00;;;;;;;29.21;31.95;99815.06;5056486;28;20241;-80
2022/07/13 11:08:15;;;;;;;1.10;1.00;;;;;;;29.24;31.46;99820.75;5051933;28;20292;-79
2022/07/13 11:10:42;;;;;;;2.60;1.02;;;;;;;29.30;31.61;99810.34;5029171;28;20232;-79
2022/07/13 11:13:12;;;;;;;1.55;1.02;;;;;;;29.54;31.69;99809.56;5047391;28;20283;-80
2022/07/13 11:15:53;;;;;;;1.17;1.10;;;;;;;29.36;31.58;99811.72;5043228;28;20248;-80
2022/07/13 11:18:36;;;;;;;1.27;0.80;;;;;;;29.43;30.82;99817.50;5047676;28;20323;-80
2022/07/13 11:21:14;;;;;;;0.90;0.90;;;;;;;29.29;31.80;99805.94;5047742;28;20225;-80
2022/07/13 11:27:00;;;;;;;1.05;1.02;;;;;;;29.67;31.73;99808.47;5040209;28;20316;-82
2022/07/13 11:29:48;;;;;;;3.70;0.80;;;;;;;29.83;30.30;99798.38;5042134;28;20241;-80
2022/07/13 11:32:21;;;;;;;2.67;1.00;;;;;;;29.77;31.03;99803.31;5045740;28;20291;-82
2022/07/13 11:34:48;;;;;;;2.22;0.98;;;;;;;29.69;30.55;99804.22;5042154;28;20222;-80
2022/07/13 11:37:22;;;;;;;3.10;1.10;;;;;;;29.73;30.93;99799.63;5039700;28;20651;-80
2022/07/13 11:39:48;;;;;;;2.05;1.10;;;;;;;29.60;30.81;99788.91;5036979;28;20259;-80
2022/07/13 11:42:15;;;;;;;1.63;0.90;;;;;;;29.69;31.29;99786.84;5042652;28;20718;-81
2022/07/13 11:44:42;;;;;;;1.40;1.08;;;;;;;29.83;30.80;99795.59;5050710;28;20773;-80
2022/07/13 11:47:09;;;;;;;2.15;1.10;;;;;;;29.94;30.58;99785.75;5039734;28;20233;-80
2022/07/13 11:49:50;;;;;;;1.60;1.10;;;;;;;29.88;30.94;99789.03;5049220;28;20302;-81
2022/07/13 11:52:24;;;;;;;1.55;1.20;;;;;;;29.91;30.57;99782.88;5076249;28;20603;-81